sensor_id;sensor_type;location;lat;lon;timestamp;temperature;humidity
17795;DHT22;9021;50.882;4.326;2023-04-25T00:02:19;11.40;99.90
17795;DHT22;9021;50.882;4.326;2023-04-25T00:04:44;11.60;99.90
17795;DHT22;9021;50.882;4.326;2023-04-25T00:07:10;11.00;99.90
17795;DHT22;9021;50.882;4.326;2023-04-25T00:09:37;11.70;99.90
17795;DHT22;9021;50.882;4.326;2023-04-25T00:14:29;11.30;99.90
17795;DHT22;9021;50.882;4.326;2023-04-25T00:16:55;11.40;99.90
17795;DHT22;9021;50.882;4.326;2023-04-25T00:19:21;11.30;99.90
17795;DHT22;9021;50.882;4.326;2023-04-25T00:21:47;11.00;99.90
17795;DHT22;9021;50.882;4.326;2023-04-25T00:24:13;11.00;99.90
17795;DHT22;9021;50.882;4.326;2023-04-25T00:26:38;11.50;99.90
17795;DHT22;9021;50.882;4.326;2023-04-25T00:29:04;11.60;99.90
17795;DHT22;9021;50.882;4.326;2023-04-25T00:31:30;11.60;99.90
17795;DHT22;9021;50.882;4.326;2023-04-25T00:33:56;11.10;99.90
17795;DHT22;9021;50.882;4.326;2023-04-25T00:36:22;10.80;99.90
17795;DHT22;9021;50.882;4.326;2023-04-25T00:38:47;11.60;99.90
17795;DHT22;9021;50.882;4.326;2023-04-25T00:41:13;10.70;99.90
17795;DHT22;9021;50.882;4.326;2023-04-25T00:43:39;11.30;99.90
17795;DHT22;9021;50.882;4.326;2023-04-25T00:46:06;10.90;99.90
17795;DHT22;9021;50.882;4.326;2023-04-25T00:48:31;11.20;99.90
17795;DHT22;9021;50.882;4.326;2023-04-25T00:50:58;11.40;99.90
17795;DHT22;9021;50.882;4.326;2023-04-25T00:53:26;11.20;99.90
17795;DHT22;9021;50.882;4.326;2023-04-25T00:55:52;11.10;99.90
17795;DHT22;9021;50.882;4.326;2023-04-25T00:58:19;11.40;99.90
17795;DHT22;9021;50.882;4.326;2023-04-25T01:00:46;11.00;99.90
17795;DHT22;9021;50.882;4.326;2023-04-25T01:03:13;10.60;99.90
17795;DHT22;9021;50.882;4.326;2023-04-25T01:05:41;11.20;99.90
17795;DHT22;9021;50.882;4.326;2023-04-25T01:08:07;10.60;99.90
17795;DHT22;9021;50.882;4.326;2023-04-25T01:10:33;10.70;99.90
17795;DHT22;9021;50.882;4.326;2023-04-25T01:12:58;10.40;99.90
17795;DHT22;9021;50.882;4.326;2023-04-25T01:15:24;10.60;99.90
17795;DHT22;9021;50.882;4.326;2023-04-25T01:17:50;10.70;99.90
17795;DHT22;9021;50.882;4.326;2023-04-25T01:20:16;11.10;99.90
17795;DHT22;9021;50.882;4.326;2023-04-25T01:22:42;10.80;99.90
17795;DHT22;9021;50.882;4.326;2023-04-25T01:25:08;11.20;99.90
17795;DHT22;9021;50.882;4.326;2023-04-25T01:27:36;11.00;99.90
17795;DHT22;9021;50.882;4.326;2023-04-25T01:30:02;10.80;99.90
17795;DHT22;9021;50.882;4.326;2023-04-25T01:32:29;10.80;99.90
17795;DHT22;9021;50.882;4.326;2023-04-25T01:34:57;10.90;99.90
17795;DHT22;9021;50.882;4.326;2023-04-25T01:37:22;10.70;99.90
17795;DHT22;9021;50.882;4.326;2023-04-25T01:39:48;10.60;99.90
17795;DHT22;9021;50.882;4.326;2023-04-25T01:42:15;10.80;99.90
17795;DHT22;9021;50.882;4.326;2023-04-25T01:44:41;10.60;99.90
17795;DHT22;9021;50.882;4.326;2023-04-25T01:51:59;10.60;99.90
17795;DHT22;9021;50.882;4.326;2023-04-25T01:56:51;11.00;99.90
17795;DHT22;9021;50.882;4.326;2023-04-25T01:59:18;10.80;99.90
17795;DHT22;9021;50.882;4.326;2023-04-25T02:01:45;10.40;99.90
17795;DHT22;9021;50.882;4.326;2023-04-25T02:04:11;11.20;99.90
17795;DHT22;9021;50.882;4.326;2023-04-25T02:06:37;11.20;99.90
17795;DHT22;9021;50.882;4.326;2023-04-25T02:09:02;10.90;99.90
17795;DHT22;9021;50.882;4.326;2023-04-25T02:11:28;11.50;99.90
17795;DHT22;9021;50.882;4.326;2023-04-25T02:16:20;10.90;99.90
17795;DHT22;9021;50.882;4.326;2023-04-25T02:18:45;10.40;99.90
17795;DHT22;9021;50.882;4.326;2023-04-25T02:21:12;10.90;99.90
17795;DHT22;9021;50.882;4.326;2023-04-25T02:26:04;11.10;99.90
17795;DHT22;9021;50.882;4.326;2023-04-25T02:28:30;10.70;99.90
17795;DHT22;9021;50.882;4.326;2023-04-25T02:30:55;10.20;99.90
17795;DHT22;9021;50.882;4.326;2023-04-25T02:35:47;10.80;99.90
17795;DHT22;9021;50.882;4.326;2023-04-25T02:43:06;10.10;99.90
17795;DHT22;9021;50.882;4.326;2023-04-25T02:45:32;10.40;99.90
17795;DHT22;9021;50.882;4.326;2023-04-25T02:50:24;11.00;99.90
17795;DHT22;9021;50.882;4.326;2023-04-25T02:52:49;10.20;99.90
17795;DHT22;9021;50.882;4.326;2023-04-25T03:00:07;10.40;99.90
17795;DHT22;9021;50.882;4.326;2023-04-25T03:02:33;10.40;99.90
17795;DHT22;9021;50.882;4.326;2023-04-25T03:07:25;10.40;99.90
17795;DHT22;9021;50.882;4.326;2023-04-25T03:12:17;10.80;99.90
17795;DHT22;9021;50.882;4.326;2023-04-25T03:14:42;10.00;99.90
17795;DHT22;9021;50.882;4.326;2023-04-25T03:19:34;10.10;99.90
17795;DHT22;9021;50.882;4.326;2023-04-25T03:24:25;10.00;99.90
17795;DHT22;9021;50.882;4.326;2023-04-25T03:29:18;10.40;99.90
17795;DHT22;9021;50.882;4.326;2023-04-25T03:34:10;10.10;99.90
17795;DHT22;9021;50.882;4.326;2023-04-25T03:39:02;10.90;99.90
17795;DHT22;9021;50.882;4.326;2023-04-25T03:41:28;10.40;99.90
17795;DHT22;9021;50.882;4.326;2023-04-25T03:43:55;10.30;99.90
17795;DHT22;9021;50.882;4.326;2023-04-25T03:46:20;9.90;99.90
17795;DHT22;9021;50.882;4.326;2023-04-25T03:51:12;10.40;99.90
17795;DHT22;9021;50.882;4.326;2023-04-25T03:53:38;10.40;99.90
17795;DHT22;9021;50.882;4.326;2023-04-25T03:56:03;10.60;99.90
17795;DHT22;9021;50.882;4.326;2023-04-25T03:58:29;10.30;99.90
17795;DHT22;9021;50.882;4.326;2023-04-25T04:03:21;10.60;99.90
17795;DHT22;9021;50.882;4.326;2023-04-25T04:05:47;10.50;99.90
17795;DHT22;9021;50.882;4.326;2023-04-25T04:08:12;9.90;99.90
17795;DHT22;9021;50.882;4.326;2023-04-25T04:10:38;9.80;99.90
17795;DHT22;9021;50.882;4.326;2023-04-25T04:13:04;10.40;99.90
17795;DHT22;9021;50.882;4.326;2023-04-25T04:15:29;10.20;99.90
17795;DHT22;9021;50.882;4.326;2023-04-25T04:20:28;10.50;99.90
17795;DHT22;9021;50.882;4.326;2023-04-25T04:25:21;10.80;99.90
17795;DHT22;9021;50.882;4.326;2023-04-25T04:27:46;9.70;99.90
17795;DHT22;9021;50.882;4.326;2023-04-25T04:32:38;10.00;99.90
17795;DHT22;9021;50.882;4.326;2023-04-25T04:35:05;10.10;99.90
17795;DHT22;9021;50.882;4.326;2023-04-25T04:39:58;10.10;99.90
17795;DHT22;9021;50.882;4.326;2023-04-25T04:42:24;10.40;99.90
17795;DHT22;9021;50.882;4.326;2023-04-25T04:47:17;10.70;99.90
17795;DHT22;9021;50.882;4.326;2023-04-25T04:54:36;9.90;99.90
17795;DHT22;9021;50.882;4.326;2023-04-25T04:59:27;10.10;99.90
17795;DHT22;9021;50.882;4.326;2023-04-25T05:04:19;10.20;99.90
17795;DHT22;9021;50.882;4.326;2023-04-25T05:06:45;10.00;99.90
17795;DHT22;9021;50.882;4.326;2023-04-25T05:16:28;9.60;99.90
17795;DHT22;9021;50.882;4.326;2023-04-25T05:18:54;9.90;99.90
17795;DHT22;9021;50.882;4.326;2023-04-25T05:21:20;9.70;99.90
17795;DHT22;9021;50.882;4.326;2023-04-25T05:26:11;10.90;99.90
17795;DHT22;9021;50.882;4.326;2023-04-25T05:28:40;10.00;99.90
17795;DHT22;9021;50.882;4.326;2023-04-25T05:36:01;10.10;99.90
17795;DHT22;9021;50.882;4.326;2023-04-25T05:38:27;10.30;99.90
17795;DHT22;9021;50.882;4.326;2023-04-25T05:40:52;10.60;99.90
17795;DHT22;9021;50.882;4.326;2023-04-25T05:43:18;10.70;99.90
17795;DHT22;9021;50.882;4.326;2023-04-25T05:48:12;10.20;99.90
17795;DHT22;9021;50.882;4.326;2023-04-25T05:53:04;10.30;99.90
17795;DHT22;9021;50.882;4.326;2023-04-25T06:00:23;10.60;99.90
17795;DHT22;9021;50.882;4.326;2023-04-25T06:05:15;10.60;99.90
17795;DHT22;9021;50.882;4.326;2023-04-25T06:07:41;10.10;99.90
17795;DHT22;9021;50.882;4.326;2023-04-25T06:10:07;10.30;99.90
17795;DHT22;9021;50.882;4.326;2023-04-25T06:12:33;10.40;99.90
17795;DHT22;9021;50.882;4.326;2023-04-25T06:15:00;10.20;99.90
17795;DHT22;9021;50.882;4.326;2023-04-25T06:22:18;10.80;99.90
17795;DHT22;9021;50.882;4.326;2023-04-25T06:27:11;10.30;99.90
17795;DHT22;9021;50.882;4.326;2023-04-25T06:32:02;11.10;99.90
17795;DHT22;9021;50.882;4.326;2023-04-25T06:34:28;11.20;99.90
17795;DHT22;9021;50.882;4.326;2023-04-25T06:36:54;11.50;99.90
17795;DHT22;9021;50.882;4.326;2023-04-25T06:41:48;10.80;99.90
17795;DHT22;9021;50.882;4.326;2023-04-25T06:46:40;10.50;99.90
17795;DHT22;9021;50.882;4.326;2023-04-25T06:49:06;11.00;99.90
17795;DHT22;9021;50.882;4.326;2023-04-25T06:53:58;11.50;99.90
17795;DHT22;9021;50.882;4.326;2023-04-25T06:56:24;11.40;99.90
17795;DHT22;9021;50.882;4.326;2023-04-25T06:58:49;11.20;99.90
17795;DHT22;9021;50.882;4.326;2023-04-25T07:01:15;11.00;99.90
17795;DHT22;9021;50.882;4.326;2023-04-25T07:06:07;10.70;99.90
17795;DHT22;9021;50.882;4.326;2023-04-25T07:08:33;11.40;99.90
17795;DHT22;9021;50.882;4.326;2023-04-25T07:10:58;10.90;99.90
17795;DHT22;9021;50.882;4.326;2023-04-25T07:13:24;11.00;99.90
17795;DHT22;9021;50.882;4.326;2023-04-25T07:18:16;10.70;99.90
17795;DHT22;9021;50.882;4.326;2023-04-25T07:20:42;11.10;99.90
17795;DHT22;9021;50.882;4.326;2023-04-25T07:23:07;11.00;99.90
17795;DHT22;9021;50.882;4.326;2023-04-25T07:25:33;10.80;99.90
17795;DHT22;9021;50.882;4.326;2023-04-25T07:27:58;11.50;99.90
17795;DHT22;9021;50.882;4.326;2023-04-25T07:30:24;11.00;99.90
17795;DHT22;9021;50.882;4.326;2023-04-25T07:32:50;11.40;99.90
17795;DHT22;9021;50.882;4.326;2023-04-25T07:35:16;11.60;99.90
17795;DHT22;9021;50.882;4.326;2023-04-25T07:37:42;11.50;99.90
17795;DHT22;9021;50.882;4.326;2023-04-25T07:40:08;11.80;99.90
17795;DHT22;9021;50.882;4.326;2023-04-25T07:42:35;11.70;99.90
17795;DHT22;9021;50.882;4.326;2023-04-25T07:45:01;12.00;99.90
17795;DHT22;9021;50.882;4.326;2023-04-25T07:47:27;11.80;99.90
17795;DHT22;9021;50.882;4.326;2023-04-25T07:52:18;12.00;99.90
17795;DHT22;9021;50.882;4.326;2023-04-25T07:54:44;12.60;99.90
17795;DHT22;9021;50.882;4.326;2023-04-25T07:57:10;12.40;99.40
17795;DHT22;9021;50.882;4.326;2023-04-25T07:59:36;12.80;99.90
17795;DHT22;9021;50.882;4.326;2023-04-25T08:02:01;13.00;99.90
17795;DHT22;9021;50.882;4.326;2023-04-25T08:04:28;12.30;99.90
17795;DHT22;9021;50.882;4.326;2023-04-25T08:06:54;12.70;98.40
17795;DHT22;9021;50.882;4.326;2023-04-25T08:09:20;12.60;99.90
17795;DHT22;9021;50.882;4.326;2023-04-25T08:11:46;12.30;99.00
17795;DHT22;9021;50.882;4.326;2023-04-25T08:14:12;13.00;99.90
17795;DHT22;9021;50.882;4.326;2023-04-25T08:16:39;12.60;99.90
17795;DHT22;9021;50.882;4.326;2023-04-25T08:19:04;12.90;98.00
17795;DHT22;9021;50.882;4.326;2023-04-25T08:21:30;13.40;99.70
17795;DHT22;9021;50.882;4.326;2023-04-25T08:23:57;13.40;99.30
17795;DHT22;9021;50.882;4.326;2023-04-25T08:26:24;13.90;99.00
17795;DHT22;9021;50.882;4.326;2023-04-25T08:28:50;13.70;96.10
17795;DHT22;9021;50.882;4.326;2023-04-25T08:31:16;13.70;99.40
17795;DHT22;9021;50.882;4.326;2023-04-25T08:33:42;13.40;96.40
17795;DHT22;9021;50.882;4.326;2023-04-25T08:36:08;13.40;96.10
17795;DHT22;9021;50.882;4.326;2023-04-25T08:38:33;14.00;97.20
17795;DHT22;9021;50.882;4.326;2023-04-25T08:41:00;13.70;94.50
17795;DHT22;9021;50.882;4.326;2023-04-25T08:43:29;14.10;95.80
17795;DHT22;9021;50.882;4.326;2023-04-25T08:45:59;14.00;94.40
17795;DHT22;9021;50.882;4.326;2023-04-25T08:48:27;14.30;96.80
17795;DHT22;9021;50.882;4.326;2023-04-25T08:50:54;14.40;96.10
17795;DHT22;9021;50.882;4.326;2023-04-25T08:53:25;14.30;94.00
17795;DHT22;9021;50.882;4.326;2023-04-25T08:55:51;14.40;93.90
17795;DHT22;9021;50.882;4.326;2023-04-25T08:58:19;14.50;95.80
17795;DHT22;9021;50.882;4.326;2023-04-25T09:00:45;14.60;93.80
17795;DHT22;9021;50.882;4.326;2023-04-25T09:03:11;14.40;95.00
17795;DHT22;9021;50.882;4.326;2023-04-25T09:05:37;13.60;94.00
17795;DHT22;9021;50.882;4.326;2023-04-25T09:10:29;14.00;95.00
17795;DHT22;9021;50.882;4.326;2023-04-25T09:13:12;13.80;95.60
17795;DHT22;9021;50.882;4.326;2023-04-25T09:16:04;13.70;95.70
17795;DHT22;9021;50.882;4.326;2023-04-25T09:18:32;13.60;96.30
17795;DHT22;9021;50.882;4.326;2023-04-25T09:21:09;12.90;94.70
17795;DHT22;9021;50.882;4.326;2023-04-25T09:23:42;12.60;98.30
17795;DHT22;9021;50.882;4.326;2023-04-25T09:26:07;12.80;95.30
17795;DHT22;9021;50.882;4.326;2023-04-25T09:28:34;13.50;97.70
17795;DHT22;9021;50.882;4.326;2023-04-25T09:31:00;12.90;95.30
17795;DHT22;9021;50.882;4.326;2023-04-25T09:33:31;12.70;95.50
17795;DHT22;9021;50.882;4.326;2023-04-25T09:36:08;13.60;97.80
17795;DHT22;9021;50.882;4.326;2023-04-25T09:38:44;13.20;95.30
17795;DHT22;9021;50.882;4.326;2023-04-25T09:41:11;13.30;94.90
17795;DHT22;9021;50.882;4.326;2023-04-25T09:43:37;13.70;97.70
17795;DHT22;9021;50.882;4.326;2023-04-25T09:46:10;13.90;97.40
17795;DHT22;9021;50.882;4.326;2023-04-25T09:48:37;14.10;97.10
17795;DHT22;9021;50.882;4.326;2023-04-25T09:53:28;14.50;95.10
17795;DHT22;9021;50.882;4.326;2023-04-25T09:55:56;14.20;94.90
17795;DHT22;9021;50.882;4.326;2023-04-25T09:58:24;14.50;94.70
17795;DHT22;9021;50.882;4.326;2023-04-25T10:00:54;14.30;92.00
17795;DHT22;9021;50.882;4.326;2023-04-25T10:03:22;14.00;93.80
17795;DHT22;9021;50.882;4.326;2023-04-25T10:05:50;13.60;94.20
17795;DHT22;9021;50.882;4.326;2023-04-25T10:10:44;13.90;95.50
17795;DHT22;9021;50.882;4.326;2023-04-25T10:13:11;13.90;92.50
17795;DHT22;9021;50.882;4.326;2023-04-25T10:15:40;15.10;91.70
17795;DHT22;9021;50.882;4.326;2023-04-25T10:18:07;14.90;93.90
17795;DHT22;9021;50.882;4.326;2023-04-25T10:20:33;14.50;94.60
17795;DHT22;9021;50.882;4.326;2023-04-25T10:23:07;14.80;94.00
17795;DHT22;9021;50.882;4.326;2023-04-25T10:25:36;15.30;92.00
17795;DHT22;9021;50.882;4.326;2023-04-25T10:28:03;14.60;91.80
17795;DHT22;9021;50.882;4.326;2023-04-25T10:32:55;15.00;89.50
17795;DHT22;9021;50.882;4.326;2023-04-25T10:35:25;15.50;85.60
17795;DHT22;9021;50.882;4.326;2023-04-25T10:38:10;15.80;87.40
17795;DHT22;9021;50.882;4.326;2023-04-25T10:40:38;15.90;90.50
17795;DHT22;9021;50.882;4.326;2023-04-25T10:46:00;15.60;87.90
17795;DHT22;9021;50.882;4.326;2023-04-25T10:48:27;15.00;91.50
17795;DHT22;9021;50.882;4.326;2023-04-25T10:51:15;14.60;91.90
17795;DHT22;9021;50.882;4.326;2023-04-25T10:53:42;14.90;91.70
17795;DHT22;9021;50.882;4.326;2023-04-25T10:56:19;15.00;93.50
17795;DHT22;9021;50.882;4.326;2023-04-25T10:58:51;13.90;92.30
17795;DHT22;9021;50.882;4.326;2023-04-25T11:01:21;13.70;95.20
17795;DHT22;9021;50.882;4.326;2023-04-25T11:03:47;13.80;95.90
17795;DHT22;9021;50.882;4.326;2023-04-25T11:09:02;13.50;93.60
17795;DHT22;9021;50.882;4.326;2023-04-25T11:11:36;15.30;92.00
17795;DHT22;9021;50.882;4.326;2023-04-25T11:14:02;15.60;93.30
17795;DHT22;9021;50.882;4.326;2023-04-25T11:16:28;15.90;93.10
17795;DHT22;9021;50.882;4.326;2023-04-25T11:18:57;16.50;93.00
17795;DHT22;9021;50.882;4.326;2023-04-25T11:21:23;16.70;90.90
17795;DHT22;9021;50.882;4.326;2023-04-25T11:23:49;17.30;91.40
17795;DHT22;9021;50.882;4.326;2023-04-25T11:26:15;16.60;91.40
17795;DHT22;9021;50.882;4.326;2023-04-25T11:28:40;16.60;88.80
17795;DHT22;9021;50.882;4.326;2023-04-25T11:31:10;17.00;91.90
17795;DHT22;9021;50.882;4.326;2023-04-25T11:33:35;16.80;91.20
17795;DHT22;9021;50.882;4.326;2023-04-25T11:36:01;17.10;91.20
17795;DHT22;9021;50.882;4.326;2023-04-25T11:38:27;16.90;87.10
17795;DHT22;9021;50.882;4.326;2023-04-25T11:40:53;16.40;89.90
17795;DHT22;9021;50.882;4.326;2023-04-25T11:43:22;17.50;90.40
17795;DHT22;9021;50.882;4.326;2023-04-25T11:45:51;18.20;90.80
17795;DHT22;9021;50.882;4.326;2023-04-25T11:48:18;18.40;86.50
17795;DHT22;9021;50.882;4.326;2023-04-25T11:50:44;19.20;83.60
17795;DHT22;9021;50.882;4.326;2023-04-25T11:53:10;19.40;78.70
17795;DHT22;9021;50.882;4.326;2023-04-25T11:55:36;20.10;80.70
17795;DHT22;9021;50.882;4.326;2023-04-25T11:58:03;20.20;80.90
17795;DHT22;9021;50.882;4.326;2023-04-25T12:02:55;20.00;78.20
17795;DHT22;9021;50.882;4.326;2023-04-25T12:05:28;20.00;77.10
17795;DHT22;9021;50.882;4.326;2023-04-25T12:07:54;20.40;78.90
17795;DHT22;9021;50.882;4.326;2023-04-25T12:10:20;21.00;77.30
17795;DHT22;9021;50.882;4.326;2023-04-25T12:12:48;20.90;74.50
17795;DHT22;9021;50.882;4.326;2023-04-25T12:15:14;19.00;79.90
17795;DHT22;9021;50.882;4.326;2023-04-25T12:17:45;18.70;79.50
17795;DHT22;9021;50.882;4.326;2023-04-25T12:20:16;17.50;80.30
17795;DHT22;9021;50.882;4.326;2023-04-25T12:22:46;17.10;81.30
17795;DHT22;9021;50.882;4.326;2023-04-25T12:25:13;16.90;81.30
17795;DHT22;9021;50.882;4.326;2023-04-25T12:28:15;16.80;77.40
17795;DHT22;9021;50.882;4.326;2023-04-25T12:31:04;16.60;80.80
17795;DHT22;9021;50.882;4.326;2023-04-25T12:33:34;16.80;81.80
17795;DHT22;9021;50.882;4.326;2023-04-25T12:36:01;17.40;83.20
17795;DHT22;9021;50.882;4.326;2023-04-25T12:38:41;18.50;79.30
17795;DHT22;9021;50.882;4.326;2023-04-25T12:41:08;19.10;80.50
17795;DHT22;9021;50.882;4.326;2023-04-25T12:43:34;19.30;78.60
17795;DHT22;9021;50.882;4.326;2023-04-25T12:46:00;18.10;78.60
17795;DHT22;9021;50.882;4.326;2023-04-25T12:50:52;18.00;74.30
17795;DHT22;9021;50.882;4.326;2023-04-25T12:53:18;17.80;75.80
17795;DHT22;9021;50.882;4.326;2023-04-25T12:55:45;17.60;77.50
17795;DHT22;9021;50.882;4.326;2023-04-25T12:58:18;17.00;78.80
17795;DHT22;9021;50.882;4.326;2023-04-25T13:00:45;17.00;79.30
17795;DHT22;9021;50.882;4.326;2023-04-25T13:03:11;16.90;85.00
17795;DHT22;9021;50.882;4.326;2023-04-25T13:05:38;17.10;84.80
17795;DHT22;9021;50.882;4.326;2023-04-25T13:08:04;16.90;79.20
17795;DHT22;9021;50.882;4.326;2023-04-25T13:12:55;16.20;78.40
17795;DHT22;9021;50.882;4.326;2023-04-25T13:15:22;17.70;84.20
17795;DHT22;9021;50.882;4.326;2023-04-25T13:17:48;17.50;79.40
17795;DHT22;9021;50.882;4.326;2023-04-25T13:20:14;16.60;80.50
17795;DHT22;9021;50.882;4.326;2023-04-25T13:22:41;16.80;80.50
17795;DHT22;9021;50.882;4.326;2023-04-25T13:25:08;16.80;81.90
17795;DHT22;9021;50.882;4.326;2023-04-25T13:27:34;17.00;79.00
17795;DHT22;9021;50.882;4.326;2023-04-25T13:30:01;17.10;77.40
17795;DHT22;9021;50.882;4.326;2023-04-25T13:32:30;17.70;79.40
17795;DHT22;9021;50.882;4.326;2023-04-25T13:34:55;17.40;78.40
17795;DHT22;9021;50.882;4.326;2023-04-25T13:37:21;17.20;79.70
17795;DHT22;9021;50.882;4.326;2023-04-25T13:39:49;17.00;79.50
17795;DHT22;9021;50.882;4.326;2023-04-25T13:42:15;17.20;74.80
17795;DHT22;9021;50.882;4.326;2023-04-25T13:44:41;16.40;81.50
17795;DHT22;9021;50.882;4.326;2023-04-25T13:49:32;16.20;82.70
17795;DHT22;9021;50.882;4.326;2023-04-25T13:51:58;15.70;84.60
17795;DHT22;9021;50.882;4.326;2023-04-25T13:54:24;16.20;82.70
17795;DHT22;9021;50.882;4.326;2023-04-25T13:56:50;15.90;85.00
17795;DHT22;9021;50.882;4.326;2023-04-25T13:59:17;15.30;81.20
17795;DHT22;9021;50.882;4.326;2023-04-25T14:01:42;15.60;83.10
17795;DHT22;9021;50.882;4.326;2023-04-25T14:04:08;15.20;83.10
17795;DHT22;9021;50.882;4.326;2023-04-25T14:06:34;15.80;84.90
17795;DHT22;9021;50.882;4.326;2023-04-25T14:09:00;16.10;84.70
17795;DHT22;9021;50.882;4.326;2023-04-25T14:11:26;16.40;84.20
17795;DHT22;9021;50.882;4.326;2023-04-25T14:13:52;16.20;84.20
17795;DHT22;9021;50.882;4.326;2023-04-25T14:18:44;15.80;80.30
17795;DHT22;9021;50.882;4.326;2023-04-25T14:23:36;15.80;79.00
17795;DHT22;9021;50.882;4.326;2023-04-25T14:28:28;16.00;84.00
17795;DHT22;9021;50.882;4.326;2023-04-25T14:30:53;16.90;81.30
17795;DHT22;9021;50.882;4.326;2023-04-25T14:33:19;16.90;80.80
17795;DHT22;9021;50.882;4.326;2023-04-25T14:35:45;16.80;81.40
17795;DHT22;9021;50.882;4.326;2023-04-25T14:38:11;16.70;77.40
17795;DHT22;9021;50.882;4.326;2023-04-25T14:40:37;16.70;82.00
17795;DHT22;9021;50.882;4.326;2023-04-25T14:45:29;16.20;84.20
17795;DHT22;9021;50.882;4.326;2023-04-25T14:50:23;15.90;82.60
17795;DHT22;9021;50.882;4.326;2023-04-25T14:52:48;16.00;83.30
17795;DHT22;9021;50.882;4.326;2023-04-25T14:55:14;16.00;83.70
17795;DHT22;9021;50.882;4.326;2023-04-25T14:57:40;15.70;83.20
17795;DHT22;9021;50.882;4.326;2023-04-25T15:00:06;15.30;80.20
17795;DHT22;9021;50.882;4.326;2023-04-25T15:02:35;15.60;84.20
17795;DHT22;9021;50.882;4.326;2023-04-25T15:05:01;15.10;84.00
17795;DHT22;9021;50.882;4.326;2023-04-25T15:07:27;15.50;82.30
17795;DHT22;9021;50.882;4.326;2023-04-25T15:09:53;15.50;83.10
17795;DHT22;9021;50.882;4.326;2023-04-25T15:12:19;15.40;79.10
17795;DHT22;9021;50.882;4.326;2023-04-25T15:17:11;14.80;78.80
17795;DHT22;9021;50.882;4.326;2023-04-25T15:22:05;14.50;79.70
17795;DHT22;9021;50.882;4.326;2023-04-25T15:26:58;14.70;79.00
17795;DHT22;9021;50.882;4.326;2023-04-25T15:29:24;15.10;85.00
17795;DHT22;9021;50.882;4.326;2023-04-25T15:31:50;15.00;83.70
17795;DHT22;9021;50.882;4.326;2023-04-25T15:36:41;14.70;84.80
17795;DHT22;9021;50.882;4.326;2023-04-25T15:39:07;15.40;80.10
17795;DHT22;9021;50.882;4.326;2023-04-25T15:41:33;15.80;85.30
17795;DHT22;9021;50.882;4.326;2023-04-25T15:43:59;15.20;80.70
17795;DHT22;9021;50.882;4.326;2023-04-25T15:46:26;15.50;84.60
17795;DHT22;9021;50.882;4.326;2023-04-25T15:48:51;15.30;84.30
17795;DHT22;9021;50.882;4.326;2023-04-25T15:51:17;15.90;86.40
17795;DHT22;9021;50.882;4.326;2023-04-25T15:53:43;15.30;81.50
17795;DHT22;9021;50.882;4.326;2023-04-25T15:56:08;14.90;84.50
17795;DHT22;9021;50.882;4.326;2023-04-25T15:58:34;15.00;82.40
17795;DHT22;9021;50.882;4.326;2023-04-25T16:01:00;15.80;84.50
17795;DHT22;9021;50.882;4.326;2023-04-25T16:05:52;15.50;84.20
17795;DHT22;9021;50.882;4.326;2023-04-25T16:08:18;14.60;85.00
17795;DHT22;9021;50.882;4.326;2023-04-25T16:10:44;15.70;85.20
17795;DHT22;9021;50.882;4.326;2023-04-25T16:13:10;15.40;85.20
17795;DHT22;9021;50.882;4.326;2023-04-25T16:15:35;15.10;79.60
17795;DHT22;9021;50.882;4.326;2023-04-25T16:18:01;14.80;84.30
17795;DHT22;9021;50.882;4.326;2023-04-25T16:20:27;15.50;86.10
17795;DHT22;9021;50.882;4.326;2023-04-25T16:22:53;14.80;84.40
17795;DHT22;9021;50.882;4.326;2023-04-25T16:25:18;15.20;80.10
17795;DHT22;9021;50.882;4.326;2023-04-25T16:27:46;15.20;82.40
17795;DHT22;9021;50.882;4.326;2023-04-25T16:30:12;15.10;77.90
17795;DHT22;9021;50.882;4.326;2023-04-25T16:32:38;15.10;77.70
17795;DHT22;9021;50.882;4.326;2023-04-25T16:35:05;14.60;85.20
17795;DHT22;9021;50.882;4.326;2023-04-25T16:37:31;14.70;80.90
17795;DHT22;9021;50.882;4.326;2023-04-25T16:39:57;14.70;84.40
17795;DHT22;9021;50.882;4.326;2023-04-25T16:42:23;14.60;84.50
17795;DHT22;9021;50.882;4.326;2023-04-25T16:44:48;14.80;79.10
17795;DHT22;9021;50.882;4.326;2023-04-25T16:47:14;15.10;83.30
17795;DHT22;9021;50.882;4.326;2023-04-25T16:49:43;14.60;85.70
17795;DHT22;9021;50.882;4.326;2023-04-25T16:52:12;14.80;84.90
17795;DHT22;9021;50.882;4.326;2023-04-25T16:54:38;15.00;86.00
17795;DHT22;9021;50.882;4.326;2023-04-25T16:59:34;14.60;81.10
17795;DHT22;9021;50.882;4.326;2023-04-25T17:02:00;14.40;86.70
17795;DHT22;9021;50.882;4.326;2023-04-25T17:04:26;14.40;88.30
17795;DHT22;9021;50.882;4.326;2023-04-25T17:06:52;14.70;89.70
17795;DHT22;9021;50.882;4.326;2023-04-25T17:09:18;15.80;89.10
17795;DHT22;9021;50.882;4.326;2023-04-25T17:11:44;14.80;87.50
17795;DHT22;9021;50.882;4.326;2023-04-25T17:14:09;14.20;83.10
17795;DHT22;9021;50.882;4.326;2023-04-25T17:16:36;13.90;85.80
17795;DHT22;9021;50.882;4.326;2023-04-25T17:19:03;13.30;87.00
17795;DHT22;9021;50.882;4.326;2023-04-25T17:21:29;13.50;87.40
17795;DHT22;9021;50.882;4.326;2023-04-25T17:23:56;13.60;90.20
17795;DHT22;9021;50.882;4.326;2023-04-25T17:26:23;12.90;90.00
17795;DHT22;9021;50.882;4.326;2023-04-25T17:28:48;13.50;90.10
17795;DHT22;9021;50.882;4.326;2023-04-25T17:31:17;13.70;90.60
17795;DHT22;9021;50.882;4.326;2023-04-25T17:33:43;13.10;89.70
17795;DHT22;9021;50.882;4.326;2023-04-25T17:36:08;13.10;87.50
17795;DHT22;9021;50.882;4.326;2023-04-25T17:38:34;12.90;88.00
17795;DHT22;9021;50.882;4.326;2023-04-25T17:41:01;12.80;89.90
17795;DHT22;9021;50.882;4.326;2023-04-25T17:43:27;12.30;87.20
17795;DHT22;9021;50.882;4.326;2023-04-25T17:45:53;13.00;87.00
17795;DHT22;9021;50.882;4.326;2023-04-25T17:48:19;13.20;86.60
17795;DHT22;9021;50.882;4.326;2023-04-25T17:50:47;12.50;87.20
17795;DHT22;9021;50.882;4.326;2023-04-25T17:53:13;12.80;88.10
17795;DHT22;9021;50.882;4.326;2023-04-25T17:55:38;12.70;84.90
17795;DHT22;9021;50.882;4.326;2023-04-25T17:58:10;12.50;87.00
17795;DHT22;9021;50.882;4.326;2023-04-25T18:00:37;12.80;83.10
17795;DHT22;9021;50.882;4.326;2023-04-25T18:03:03;12.70;83.70
17795;DHT22;9021;50.882;4.326;2023-04-25T18:05:28;12.00;87.90
17795;DHT22;9021;50.882;4.326;2023-04-25T18:07:54;12.30;87.10
17795;DHT22;9021;50.882;4.326;2023-04-25T18:10:20;12.50;88.20
17795;DHT22;9021;50.882;4.326;2023-04-25T18:12:46;12.20;87.10
17795;DHT22;9021;50.882;4.326;2023-04-25T18:15:11;12.70;86.90
17795;DHT22;9021;50.882;4.326;2023-04-25T18:17:37;13.10;89.50
17795;DHT22;9021;50.882;4.326;2023-04-25T18:20:08;14.80;84.50
17795;DHT22;9021;50.882;4.326;2023-04-25T18:22:37;12.30;88.50
17795;DHT22;9021;50.882;4.326;2023-04-25T18:25:03;12.60;89.50
17795;DHT22;9021;50.882;4.326;2023-04-25T18:27:30;12.50;89.90
17795;DHT22;9021;50.882;4.326;2023-04-25T18:29:56;12.20;84.80
17795;DHT22;9021;50.882;4.326;2023-04-25T18:32:22;12.30;90.70
17795;DHT22;9021;50.882;4.326;2023-04-25T18:34:48;11.70;90.80
17795;DHT22;9021;50.882;4.326;2023-04-25T18:37:15;11.40;91.10
17795;DHT22;9021;50.882;4.326;2023-04-25T18:42:07;11.20;92.20
17795;DHT22;9021;50.882;4.326;2023-04-25T18:44:36;11.40;92.30